Incourt, Belgium
Current Conditions -  °F | °C
As of 5:25 PM on Sunday 23 Nov 2014 (Local Time) from EBBE Reporting Station
Broken Clouds Broken Clouds  
Wind Chill: 55°   Ceiling: 12000
Heat Index: 55°   Visibility: 6mi
Dew Point: 50°   Wind: 2mph
Humidity: 82%   Direction: NA
Pressure: 29.94"   Gusts: NA
Location:  50.69°N, 4.8°E
Report Text: EBBE 231625Z AUTO VRB02KT 9999 SCT100/// BKN120/// BKN150/// 13/10 Q1014 BLU
Loading
Personal Weather Stations






























Interactive Weather Map New forecast layout! Learn more

10-Day Weather Forecast

Advertisements
Track Severe Weather on mobile